首页
METAR-TAF:

METAR-TAF

机场 :

Chautauqua County/Dunkirk Airport

Dunkirk, 紐約州, 美国

纬度: 42-29-35N, 经度: 079-16-33W, 海拔: 211米

当前天气观测

该预报发布于7分钟前的19:44 UTC
风速14节,风向西转西南,有时为24节阵风
温度 5°C
湿度 81%
气压 1014 hPa
能見度: 16.1公里
多云层高于1200英尺
阴天层高于2700英尺

METAR: KDKK 181944Z AUTO 24014G24KT 10SM BKN012 OVC027 05/02 A2995 RMK AO2 PK WND 23031/1855 T00500017

时间: 14:51 (19:51 UTC)


TAF: 丢失

超过4000个机场的气象观测和天气预报(METAR&TAF报告)。

可查询的气象台以黄色和红色小点在地图上表示。

将鼠标移到小点上方,可查看气象台名称。

然后点击查看天气观测和预报。

如需切换地图:点击带黑十字的绿色按钮放大地图;点击带横线的绿色按钮缩小地图;或者点击绿色箭头查看邻近地区的地图。


METAR-TAF: